createdAt,value
2023-04-27T00:01:54.869Z,31.1
2023-04-27T00:07:49.759Z,31.1
2023-04-27T00:13:41.490Z,31
2023-04-27T00:19:32.810Z,31
2023-04-27T00:25:24.517Z,31
2023-04-27T00:31:00.303Z,31
2023-04-27T00:36:51.453Z,30.9
2023-04-27T00:42:42.636Z,30.9
2023-04-27T00:48:35.906Z,30.9
2023-04-27T00:54:26.860Z,30.9
2023-04-27T01:05:56.715Z,30.9
2023-04-27T01:11:48.341Z,30.9
2023-04-27T01:17:40.484Z,31.1
2023-04-27T01:23:33.786Z,31.1
2023-04-27T01:29:24.956Z,31.4
2023-04-27T01:35:17.729Z,32
2023-04-27T01:41:09.286Z,32.6
2023-04-27T01:47:00.900Z,33.3
2023-04-27T01:52:52.765Z,34.1
2023-04-27T01:58:43.701Z,34.8
2023-04-27T02:04:36.338Z,35.4
2023-04-27T02:10:12.972Z,36.1
2023-04-27T02:15:49.261Z,36.9
2023-04-27T02:21:41.019Z,37.6
2023-04-27T02:27:33.753Z,38.2
2023-04-27T02:33:30.278Z,38.4
2023-04-27T02:39:21.228Z,38.6
2023-04-27T02:45:12.736Z,38.6
2023-04-27T02:50:49.324Z,38.7
2023-04-27T02:56:40.665Z,38.7
2023-04-27T03:02:33.195Z,38.7
2023-04-27T03:08:26.559Z,38.7
2023-04-27T03:14:20.328Z,38.7
2023-04-27T03:20:12.570Z,38.7
2023-04-27T03:26:03.795Z,38.7
2023-04-27T03:31:39.699Z,38.6
2023-04-27T03:37:16.364Z,38.7
2023-04-27T03:42:52.469Z,38.6
2023-04-27T03:48:44.179Z,38.6
2023-04-27T03:54:35.183Z,38.6
2023-04-27T04:00:26.719Z,38.6
2023-04-27T04:06:20.720Z,38.6
2023-04-27T04:12:11.864Z,38.6
2023-04-27T04:18:03.383Z,38.5
2023-04-27T04:23:54.405Z,38.5
2023-04-27T04:29:46.849Z,38.4
2023-04-27T04:35:23.195Z,38.4
2023-04-27T04:41:02.102Z,38.4
2023-04-27T04:46:38.853Z,38.4
2023-04-27T04:52:33.306Z,38.4
2023-04-27T04:58:23.958Z,38.4
2023-04-27T05:04:20.004Z,38.3
2023-04-27T05:10:15.140Z,38.3
2023-04-27T05:16:07.942Z,38.3
2023-04-27T05:22:01.089Z,38.2
2023-04-27T05:27:37.337Z,38.2
2023-04-27T05:33:29.151Z,38.2
2023-04-27T05:39:05.194Z,38.1
2023-04-27T05:44:25.965Z,38.1
2023-04-27T05:50:03.477Z,38.1
2023-04-27T05:55:39.381Z,38.1
2023-04-27T06:01:24.677Z,38.1
2023-04-27T06:07:04.594Z,38
2023-04-27T06:12:40.564Z,37.9
2023-04-27T06:18:17.336Z,37.9
2023-04-27T06:23:53.672Z,37.9
2023-04-27T06:29:45.636Z,37.9
2023-04-27T06:35:37.317Z,37.8
2023-04-27T06:41:30.260Z,37.8
2023-04-27T06:47:22.870Z,37.8
2023-04-27T06:53:14.514Z,37.8
2023-04-27T06:59:08.295Z,37.6
2023-04-27T07:05:01.473Z,36.9
2023-04-27T07:11:05.275Z,34.6
2023-04-27T07:16:56.531Z,33.7
2023-04-27T07:22:48.318Z,36.1
2023-04-27T07:28:41.579Z,37.6
2023-04-27T07:35:01.387Z,39.2
2023-04-27T07:40:54.000Z,40.3
2023-04-27T07:46:45.410Z,41.8
2023-04-27T07:52:37.235Z,42.9
2023-04-27T07:58:28.860Z,44.1
2023-04-27T08:04:37.876Z,44.8
2023-04-27T08:10:24.875Z,46
2023-04-27T08:16:01.035Z,47.3
2023-04-27T08:21:06.184Z,48.1
2023-04-27T08:26:11.293Z,48.9
2023-04-27T08:31:45.964Z,49.9
2023-04-27T08:36:51.560Z,51
2023-04-27T08:42:27.185Z,51
2023-04-27T08:47:58.373Z,52
2023-04-27T08:53:34.875Z,51.3
2023-04-27T08:59:29.119Z,52.9
2023-04-27T09:05:24.304Z,49.3
2023-04-27T09:11:27.381Z,52.1
2023-04-27T09:17:18.567Z,50.8
2023-04-27T09:28:15.676Z,51.6
2023-04-27T09:34:07.511Z,51.6
2023-04-27T09:39:59.288Z,48.6
2023-04-27T09:45:52.364Z,51.2
2023-04-27T09:51:28.508Z,51.1
2023-04-27T09:57:19.761Z,50.2
2023-04-27T10:03:42.038Z,50.5
2023-04-27T10:09:33.707Z,50.9
2023-04-27T10:15:25.222Z,55
2023-04-27T10:21:19.541Z,55
2023-04-27T10:27:12.640Z,53.1
2023-04-27T10:33:04.249Z,50.7
2023-04-27T10:38:55.382Z,53.1
2023-04-27T10:45:02.420Z,51.2
2023-04-27T10:50:53.721Z,53.6
2023-04-27T10:56:29.844Z,51.3
2023-04-27T11:02:14.917Z,51.3
2023-04-27T11:08:09.386Z,50.1
2023-04-27T11:13:45.122Z,49.4
2023-04-27T11:19:36.278Z,49.5
2023-04-27T11:25:27.890Z,49.2
2023-04-27T11:31:19.850Z,48.3
2023-04-27T11:37:07.063Z,51.9
2023-04-27T11:42:33.955Z,49.1
2023-04-27T11:48:10.538Z,48
2023-04-27T11:53:34.358Z,47.4
2023-04-27T11:58:55.094Z,47.2
2023-04-27T12:04:25.430Z,51
2023-04-27T12:10:12.543Z,53.1
2023-04-27T12:21:10.663Z,51.6
2023-04-27T12:27:04.628Z,49.4
2023-04-27T12:32:26.272Z,51
2023-04-27T12:38:18.422Z,50.6
2023-04-27T12:44:09.694Z,49.6
2023-04-27T12:50:30.227Z,50.3
2023-04-27T12:56:36.681Z,49.7
2023-04-27T13:02:29.977Z,50.1
2023-04-27T13:08:23.937Z,48.8
2023-04-27T13:14:15.758Z,49.7
2023-04-27T13:20:13.673Z,50.1
2023-04-27T13:26:06.304Z,49.3
2023-04-27T13:31:58.281Z,48.1
2023-04-27T13:38:04.228Z,46.7
2023-04-27T13:43:56.032Z,46.9
2023-04-27T13:49:32.771Z,46.4
2023-04-27T13:55:24.363Z,45.5
2023-04-27T14:01:16.113Z,44.8
2023-04-27T14:07:09.713Z,44.2
2023-04-27T14:13:16.710Z,44.5
2023-04-27T14:19:21.073Z,44.2
2023-04-27T14:25:13.771Z,43.5
2023-04-27T14:31:04.795Z,43.3
2023-04-27T14:36:56.273Z,42.4
2023-04-27T14:42:48.331Z,41.6
2023-04-27T14:49:05.874Z,39.7
2023-04-27T14:54:57.359Z,37.6
2023-04-27T15:00:48.395Z,37.6
2023-04-27T15:06:42.033Z,36.1
2023-04-27T15:12:33.755Z,35.6
2023-04-27T15:18:26.242Z,34.8
2023-04-27T15:24:18.124Z,34.4
2023-04-27T15:30:11.916Z,34.1
2023-04-27T15:36:03.880Z,33.8
2023-04-27T15:41:55.580Z,33.6
2023-04-27T15:47:33.097Z,33.4
2023-04-27T15:53:37.786Z,33.3
2023-04-27T15:59:31.885Z,33.2
2023-04-27T16:05:25.294Z,33.1
2023-04-27T16:11:20.312Z,32.9
2023-04-27T16:16:56.506Z,32.9
2023-04-27T16:22:48.509Z,32.8
2023-04-27T16:28:40.062Z,32.8
2023-04-27T16:34:31.874Z,32.8
2023-04-27T16:40:23.581Z,32.7
2023-04-27T16:46:00.354Z,32.6
2023-04-27T16:51:52.815Z,32.6
2023-04-27T16:57:29.438Z,32.5
2023-04-27T17:03:33.893Z,32.4
2023-04-27T17:09:27.436Z,32.4
2023-04-27T17:15:19.459Z,32.3
2023-04-27T17:21:14.551Z,32.3
2023-04-27T17:27:06.367Z,32.2
2023-04-27T17:33:00.173Z,32.1
2023-04-27T17:38:55.170Z,32.1
2023-04-27T17:44:46.793Z,32
2023-04-27T17:50:38.694Z,31.9
2023-04-27T17:56:30.952Z,31.9
2023-04-27T18:01:52.559Z,31.9
2023-04-27T18:07:30.906Z,31.8
2023-04-27T18:12:54.006Z,31.8
2023-04-27T18:18:49.312Z,31.8
2023-04-27T18:24:55.229Z,31.7
2023-04-27T18:30:49.148Z,31.6
2023-04-27T18:36:41.693Z,31.6
2023-04-27T18:42:33.478Z,31.6
2023-04-27T18:48:25.646Z,31.6
2023-04-27T18:54:02.340Z,31.5
2023-04-27T18:59:54.474Z,31.5
2023-04-27T19:06:07.304Z,31.4
2023-04-27T19:12:03.679Z,31.4
2023-04-27T19:18:02.569Z,31.3
2023-04-27T19:24:01.360Z,31.3
2023-04-27T19:30:10.164Z,31.3
2023-04-27T19:36:06.930Z,31.3
2023-04-27T19:42:03.228Z,31.2
2023-04-27T19:47:40.875Z,31.2
2023-04-27T19:53:34.451Z,31.1
2023-04-27T19:59:27.499Z,31.1
2023-04-27T20:05:24.091Z,31.1
2023-04-27T20:11:19.025Z,31.1
2023-04-27T20:17:28.354Z,31
2023-04-27T20:23:08.664Z,31
2023-04-27T20:28:47.075Z,31
2023-04-27T20:34:39.970Z,31
2023-04-27T20:40:47.144Z,31
2023-04-27T20:46:39.479Z,31
2023-04-27T20:52:09.893Z,31
2023-04-27T20:58:06.283Z,30.9
2023-04-27T21:03:59.495Z,30.9
2023-04-27T21:09:52.054Z,30.9
2023-04-27T21:15:46.752Z,30.9
2023-04-27T21:21:52.657Z,30.9
2023-04-27T21:27:53.078Z,30.8
2023-04-27T21:33:47.798Z,30.8
2023-04-27T21:39:39.945Z,30.8
2023-04-27T21:45:31.537Z,30.8
2023-04-27T21:51:23.331Z,30.8
2023-04-27T21:57:00.250Z,30.8
2023-04-27T22:02:55.215Z,30.8
2023-04-27T22:08:48.144Z,30.7
2023-04-27T22:14:23.961Z,30.7
2023-04-27T22:20:15.641Z,30.6
2023-04-27T22:26:08.739Z,30.6
2023-04-27T22:32:12.765Z,30.6
2023-04-27T22:38:11.893Z,30.6
2023-04-27T22:44:03.067Z,30.6
2023-04-27T22:49:54.139Z,30.6
2023-04-27T22:55:44.856Z,30.6
2023-04-27T23:01:36.111Z,30.5
2023-04-27T23:07:29.266Z,30.5
2023-04-27T23:13:20.766Z,30.5
2023-04-27T23:19:12.432Z,30.4
2023-04-27T23:25:10.560Z,30.4
2023-04-27T23:31:02.082Z,30.4
2023-04-27T23:36:54.038Z,30.4
2023-04-27T23:42:29.520Z,30.4
2023-04-27T23:48:05.919Z,30.4
2023-04-27T23:53:57.029Z,30.3
2023-04-27T23:59:33.731Z,30.3
